sensor_id;sensor_type;location;lat;lon;timestamp;pressure;altitude;pressure_sealevel;temperature;humidity
43741;BME280;29352;48.708;9.290;2023-12-28T00:01:22;97940.97;;;-1.61;63.53
43741;BME280;29352;48.708;9.290;2023-12-28T00:03:48;97932.53;;;-1.35;63.25
43741;BME280;29352;48.708;9.290;2023-12-28T00:06:14;97935.16;;;-1.35;63.22
43741;BME280;29352;48.708;9.290;2023-12-28T00:08:40;97925.59;;;-1.17;62.21
43741;BME280;29352;48.708;9.290;2023-12-28T00:11:06;97926.41;;;-1.07;62.49
43741;BME280;29352;48.708;9.290;2023-12-28T00:13:32;97926.41;;;-1.07;62.02
43741;BME280;29352;48.708;9.290;2023-12-28T00:15:58;97929.63;;;-1.23;62.72
43741;BME280;29352;48.708;9.290;2023-12-28T00:18:24;97944.44;;;-0.84;61.08
43741;BME280;29352;48.708;9.290;2023-12-28T00:20:50;97957.97;;;-2.76;66.55
43741;BME280;29352;48.708;9.290;2023-12-28T00:23:15;97955.84;;;-1.61;65.05
43741;BME280;29352;48.708;9.290;2023-12-28T00:25:41;97966.56;;;-1.35;64.31
43741;BME280;29352;48.708;9.290;2023-12-28T00:28:08;97952.91;;;-1.68;64.86
43741;BME280;29352;48.708;9.290;2023-12-28T00:30:34;97937.47;;;-1.81;65.18
43741;BME280;29352;48.708;9.290;2023-12-28T00:32:59;97950.03;;;-1.46;64.50
43741;BME280;29352;48.708;9.290;2023-12-28T00:35:25;97951.69;;;-1.45;63.63
43741;BME280;29352;48.708;9.290;2023-12-28T00:37:50;97948.41;;;-1.37;63.63
43741;BME280;29352;48.708;9.290;2023-12-28T00:40:16;97953.34;;;-1.44;63.86
43741;BME280;29352;48.708;9.290;2023-12-28T00:42:43;97953.19;;;-1.13;62.59
43741;BME280;29352;48.708;9.290;2023-12-28T00:45:09;97950.41;;;-1.11;63.61
43741;BME280;29352;48.708;9.290;2023-12-28T00:47:35;97949.22;;;-1.46;63.94
43741;BME280;29352;48.708;9.290;2023-12-28T00:50:00;97959.53;;;-1.15;62.18
43741;BME280;29352;48.708;9.290;2023-12-28T00:52:26;97956.03;;;-0.97;61.59
43741;BME280;29352;48.708;9.290;2023-12-28T00:54:52;97953.84;;;-1.01;61.96
43741;BME280;29352;48.708;9.290;2023-12-28T00:57:17;97954.63;;;-0.72;61.52
43741;BME280;29352;48.708;9.290;2023-12-28T00:59:43;97960.94;;;-1.60;62.52
43741;BME280;29352;48.708;9.290;2023-12-28T01:02:09;97966.22;;;-1.91;65.41
43741;BME280;29352;48.708;9.290;2023-12-28T01:04:35;97959.22;;;-1.90;64.94
43741;BME280;29352;48.708;9.290;2023-12-28T01:07:00;97967.34;;;-1.83;64.20
43741;BME280;29352;48.708;9.290;2023-12-28T01:09:28;97957.03;;;-1.85;64.47
43741;BME280;29352;48.708;9.290;2023-12-28T01:11:53;97958.47;;;-1.61;63.65
43741;BME280;29352;48.708;9.290;2023-12-28T01:14:19;97960.94;;;-1.40;63.24
43741;BME280;29352;48.708;9.290;2023-12-28T01:16:44;97970.28;;;-1.38;62.41
43741;BME280;29352;48.708;9.290;2023-12-28T01:19:12;97962.50;;;-1.98;63.79
43741;BME280;29352;48.708;9.290;2023-12-28T01:21:37;97953.13;;;-2.10;64.61
43741;BME280;29352;48.708;9.290;2023-12-28T01:24:03;97956.47;;;-2.39;65.41
43741;BME280;29352;48.708;9.290;2023-12-28T01:26:29;97961.75;;;-2.29;65.57
43741;BME280;29352;48.708;9.290;2023-12-28T01:28:55;97959.31;;;-2.21;65.60
43741;BME280;29352;48.708;9.290;2023-12-28T01:31:24;97965.56;;;-1.93;65.89
43741;BME280;29352;48.708;9.290;2023-12-28T01:33:50;97968.94;;;-1.61;65.02
43741;BME280;29352;48.708;9.290;2023-12-28T01:36:21;97982.53;;;-2.18;65.44
43741;BME280;29352;48.708;9.290;2023-12-28T01:38:47;97972.03;;;-1.87;64.52
43741;BME280;29352;48.708;9.290;2023-12-28T01:41:13;97983.47;;;-1.88;65.17
43741;BME280;29352;48.708;9.290;2023-12-28T01:43:41;97984.56;;;-2.41;65.36
43741;BME280;29352;48.708;9.290;2023-12-28T01:46:10;97982.38;;;-1.85;64.50
43741;BME280;29352;48.708;9.290;2023-12-28T01:48:42;97989.13;;;-1.63;64.03
43741;BME280;29352;48.708;9.290;2023-12-28T01:51:11;97995.50;;;-1.08;62.35
43741;BME280;29352;48.708;9.290;2023-12-28T01:53:40;97996.50;;;-1.48;63.06
43741;BME280;29352;48.708;9.290;2023-12-28T01:56:09;98005.31;;;-2.39;65.07
43741;BME280;29352;48.708;9.290;2023-12-28T01:58:37;98003.56;;;-2.59;65.48
43741;BME280;29352;48.708;9.290;2023-12-28T02:01:05;97996.81;;;-1.81;64.91
43741;BME280;29352;48.708;9.290;2023-12-28T02:03:32;97995.13;;;-2.02;64.71
43741;BME280;29352;48.708;9.290;2023-12-28T02:05:59;97986.91;;;-2.28;66.15
43741;BME280;29352;48.708;9.290;2023-12-28T02:08:26;97997.31;;;-2.47;66.04
43741;BME280;29352;48.708;9.290;2023-12-28T02:10:51;97996.50;;;-2.48;66.11
43741;BME280;29352;48.708;9.290;2023-12-28T02:13:17;98010.84;;;-2.32;66.33
43741;BME280;29352;48.708;9.290;2023-12-28T02:15:46;98010.22;;;-2.15;65.55
43741;BME280;29352;48.708;9.290;2023-12-28T02:18:27;98024.13;;;-2.15;65.67
43741;BME280;29352;48.708;9.290;2023-12-28T02:21:02;98023.75;;;-1.50;63.16
43741;BME280;29352;48.708;9.290;2023-12-28T02:23:28;98027.50;;;-1.24;61.81
43741;BME280;29352;48.708;9.290;2023-12-28T02:25:53;98022.75;;;-1.69;63.06
43741;BME280;29352;48.708;9.290;2023-12-28T02:28:19;98018.94;;;-2.35;63.96
43741;BME280;29352;48.708;9.290;2023-12-28T02:30:46;98023.97;;;-1.73;63.25
43741;BME280;29352;48.708;9.290;2023-12-28T02:33:38;98014.81;;;-0.99;60.68
43741;BME280;29352;48.708;9.290;2023-12-28T02:36:18;98010.63;;;-0.82;60.14
43741;BME280;29352;48.708;9.290;2023-12-28T02:38:49;98006.66;;;-0.96;60.87
43741;BME280;29352;48.708;9.290;2023-12-28T02:41:18;98016.88;;;-1.51;62.61
43741;BME280;29352;48.708;9.290;2023-12-28T02:43:47;98014.81;;;-1.98;63.48
43741;BME280;29352;48.708;9.290;2023-12-28T02:46:13;98003.19;;;-0.97;59.35
43741;BME280;29352;48.708;9.290;2023-12-28T02:48:39;98015.47;;;-1.65;63.07
43741;BME280;29352;48.708;9.290;2023-12-28T02:51:05;98017.81;;;-1.52;62.63
43741;BME280;29352;48.708;9.290;2023-12-28T02:53:31;98001.72;;;-1.57;62.86
43741;BME280;29352;48.708;9.290;2023-12-28T02:55:57;98002.81;;;-1.31;62.19
43741;BME280;29352;48.708;9.290;2023-12-28T02:58:23;98008.38;;;-1.84;63.36
43741;BME280;29352;48.708;9.290;2023-12-28T03:00:49;97999.47;;;-1.72;63.62
43741;BME280;29352;48.708;9.290;2023-12-28T03:03:14;97990.13;;;-1.35;61.35
43741;BME280;29352;48.708;9.290;2023-12-28T03:05:40;97997.81;;;-1.82;63.89
43741;BME280;29352;48.708;9.290;2023-12-28T03:08:06;98009.03;;;-1.12;62.21
43741;BME280;29352;48.708;9.290;2023-12-28T03:10:32;98009.78;;;-1.70;62.49
43741;BME280;29352;48.708;9.290;2023-12-28T03:12:58;98002.50;;;-1.67;62.50
43741;BME280;29352;48.708;9.290;2023-12-28T03:15:24;97998.28;;;-1.19;61.58
43741;BME280;29352;48.708;9.290;2023-12-28T03:17:49;97991.13;;;-0.60;59.00
43741;BME280;29352;48.708;9.290;2023-12-28T03:20:16;97988.16;;;-0.85;61.51
43741;BME280;29352;48.708;9.290;2023-12-28T03:22:42;97991.94;;;-0.50;58.77
43741;BME280;29352;48.708;9.290;2023-12-28T03:25:07;97993.16;;;-0.17;57.58
43741;BME280;29352;48.708;9.290;2023-12-28T03:27:34;97993.28;;;-0.09;56.76
43741;BME280;29352;48.708;9.290;2023-12-28T03:30:00;97993.91;;;0.21;57.49
43741;BME280;29352;48.708;9.290;2023-12-28T03:32:25;97998.09;;;0.77;54.88
43741;BME280;29352;48.708;9.290;2023-12-28T03:34:50;98004.56;;;0.47;54.98
43741;BME280;29352;48.708;9.290;2023-12-28T03:37:16;98006.06;;;0.50;55.05
43741;BME280;29352;48.708;9.290;2023-12-28T03:39:41;98008.22;;;0.09;57.71
43741;BME280;29352;48.708;9.290;2023-12-28T03:42:07;98002.84;;;-0.27;58.43
43741;BME280;29352;48.708;9.290;2023-12-28T03:44:33;98005.75;;;-0.58;58.98
43741;BME280;29352;48.708;9.290;2023-12-28T03:46:58;98004.31;;;-0.42;58.56
43741;BME280;29352;48.708;9.290;2023-12-28T03:49:25;98001.03;;;-0.17;58.02
43741;BME280;29352;48.708;9.290;2023-12-28T03:51:51;97990.53;;;-0.17;57.67
43741;BME280;29352;48.708;9.290;2023-12-28T03:54:19;98002.75;;;0.02;57.80
43741;BME280;29352;48.708;9.290;2023-12-28T03:56:48;97990.22;;;0.14;57.09
43741;BME280;29352;48.708;9.290;2023-12-28T03:59:14;97997.56;;;-0.17;58.62
43741;BME280;29352;48.708;9.290;2023-12-28T04:01:41;97986.19;;;0.19;56.91
43741;BME280;29352;48.708;9.290;2023-12-28T04:04:07;97980.47;;;0.06;56.34
43741;BME280;29352;48.708;9.290;2023-12-28T04:06:34;97977.91;;;-0.31;57.80
43741;BME280;29352;48.708;9.290;2023-12-28T04:08:59;97981.53;;;-0.42;59.26
43741;BME280;29352;48.708;9.290;2023-12-28T04:11:25;97970.72;;;-0.66;59.08
43741;BME280;29352;48.708;9.290;2023-12-28T04:13:51;97962.97;;;-0.58;59.15
43741;BME280;29352;48.708;9.290;2023-12-28T04:16:17;97966.66;;;-0.51;59.58
43741;BME280;29352;48.708;9.290;2023-12-28T04:18:42;97968.41;;;0.13;56.16
43741;BME280;29352;48.708;9.290;2023-12-28T04:21:10;97962.53;;;0.65;54.46
43741;BME280;29352;48.708;9.290;2023-12-28T04:23:39;97966.34;;;0.88;54.89
43741;BME280;29352;48.708;9.290;2023-12-28T04:26:06;97957.69;;;1.22;53.50
43741;BME280;29352;48.708;9.290;2023-12-28T04:28:32;97962.50;;;1.27;54.04
43741;BME280;29352;48.708;9.290;2023-12-28T04:31:04;97968.31;;;1.38;53.83
43741;BME280;29352;48.708;9.290;2023-12-28T04:33:31;97957.13;;;1.36;52.99
43741;BME280;29352;48.708;9.290;2023-12-28T04:35:57;97957.75;;;1.30;54.37
43741;BME280;29352;48.708;9.290;2023-12-28T04:38:26;97958.22;;;1.94;52.20
43741;BME280;29352;48.708;9.290;2023-12-28T04:40:51;97957.91;;;1.97;52.29
43741;BME280;29352;48.708;9.290;2023-12-28T04:43:16;97959.53;;;1.98;51.27
43741;BME280;29352;48.708;9.290;2023-12-28T04:45:43;97946.78;;;2.28;50.91
43741;BME280;29352;48.708;9.290;2023-12-28T04:48:08;97959.50;;;2.73;50.17
43741;BME280;29352;48.708;9.290;2023-12-28T04:50:34;97940.72;;;2.76;51.08
43741;BME280;29352;48.708;9.290;2023-12-28T04:52:59;97955.88;;;2.66;50.81
43741;BME280;29352;48.708;9.290;2023-12-28T04:55:24;97956.53;;;3.25;50.61
43741;BME280;29352;48.708;9.290;2023-12-28T04:57:50;97957.81;;;2.23;53.76
43741;BME280;29352;48.708;9.290;2023-12-28T05:00:16;97955.88;;;2.66;51.63
43741;BME280;29352;48.708;9.290;2023-12-28T05:02:41;97941.06;;;2.90;51.00
43741;BME280;29352;48.708;9.290;2023-12-28T05:05:07;97947.66;;;2.61;51.98
43741;BME280;29352;48.708;9.290;2023-12-28T05:07:35;97942.38;;;2.94;50.04
43741;BME280;29352;48.708;9.290;2023-12-28T05:10:01;97939.09;;;2.59;51.04
43741;BME280;29352;48.708;9.290;2023-12-28T05:12:27;97948.88;;;3.55;48.92
43741;BME280;29352;48.708;9.290;2023-12-28T05:14:52;97950.94;;;2.79;50.47
43741;BME280;29352;48.708;9.290;2023-12-28T05:17:18;97943.69;;;2.98;50.72
43741;BME280;29352;48.708;9.290;2023-12-28T05:19:43;97958.84;;;2.88;52.33
43741;BME280;29352;48.708;9.290;2023-12-28T05:22:09;97967.41;;;2.41;52.69
43741;BME280;29352;48.708;9.290;2023-12-28T05:24:36;97964.94;;;2.80;51.48
43741;BME280;29352;48.708;9.290;2023-12-28T05:27:02;97968.06;;;2.51;53.23
43741;BME280;29352;48.708;9.290;2023-12-28T05:29:27;97957.00;;;2.31;54.32
43741;BME280;29352;48.708;9.290;2023-12-28T05:31:53;97968.84;;;2.35;55.60
43741;BME280;29352;48.708;9.290;2023-12-28T05:34:20;97976.09;;;2.33;52.96
43741;BME280;29352;48.708;9.290;2023-12-28T05:36:45;97980.75;;;2.88;51.22
43741;BME280;29352;48.708;9.290;2023-12-28T05:39:11;97976.31;;;2.97;52.45
43741;BME280;29352;48.708;9.290;2023-12-28T05:41:41;97979.09;;;3.20;52.63
43741;BME280;29352;48.708;9.290;2023-12-28T05:44:07;97984.50;;;3.43;49.67
43741;BME280;29352;48.708;9.290;2023-12-28T05:46:32;97980.16;;;3.66;49.20
43741;BME280;29352;48.708;9.290;2023-12-28T05:48:59;97992.44;;;3.51;53.38
43741;BME280;29352;48.708;9.290;2023-12-28T05:51:24;97985.53;;;3.17;53.29
43741;BME280;29352;48.708;9.290;2023-12-28T05:53:49;97996.69;;;3.44;53.08
43741;BME280;29352;48.708;9.290;2023-12-28T05:56:16;97983.59;;;3.75;52.02
43741;BME280;29352;48.708;9.290;2023-12-28T05:58:41;97984.56;;;4.76;48.40
43741;BME280;29352;48.708;9.290;2023-12-28T06:01:06;97984.75;;;4.43;47.43
43741;BME280;29352;48.708;9.290;2023-12-28T06:03:32;97994.31;;;4.44;48.12
43741;BME280;29352;48.708;9.290;2023-12-28T06:05:57;97994.38;;;4.36;50.36
43741;BME280;29352;48.708;9.290;2023-12-28T06:08:23;97987.09;;;4.69;48.51
43741;BME280;29352;48.708;9.290;2023-12-28T06:10:49;97987.41;;;3.64;51.42
43741;BME280;29352;48.708;9.290;2023-12-28T06:13:14;97992.28;;;4.23;50.23
43741;BME280;29352;48.708;9.290;2023-12-28T06:15:40;97995.81;;;4.15;50.35
43741;BME280;29352;48.708;9.290;2023-12-28T06:18:07;98004.25;;;4.11;51.26
43741;BME280;29352;48.708;9.290;2023-12-28T06:20:32;98002.91;;;3.75;52.86
43741;BME280;29352;48.708;9.290;2023-12-28T06:22:59;98006.56;;;4.14;51.13
43741;BME280;29352;48.708;9.290;2023-12-28T06:25:25;98018.19;;;3.96;50.97
43741;BME280;29352;48.708;9.290;2023-12-28T06:27:51;98002.16;;;4.29;50.61
43741;BME280;29352;48.708;9.290;2023-12-28T06:30:16;98002.84;;;4.62;49.47
43741;BME280;29352;48.708;9.290;2023-12-28T06:32:42;98000.13;;;4.70;49.25
43741;BME280;29352;48.708;9.290;2023-12-28T06:35:07;98008.31;;;4.84;49.63
43741;BME280;29352;48.708;9.290;2023-12-28T06:37:33;98019.72;;;3.74;52.06
43741;BME280;29352;48.708;9.290;2023-12-28T06:39:59;98013.53;;;3.98;51.31
43741;BME280;29352;48.708;9.290;2023-12-28T06:42:25;98014.63;;;4.20;51.07
43741;BME280;29352;48.708;9.290;2023-12-28T06:44:51;98024.72;;;4.48;49.78
43741;BME280;29352;48.708;9.290;2023-12-28T06:47:16;98017.28;;;4.74;49.34
43741;BME280;29352;48.708;9.290;2023-12-28T06:49:42;98015.19;;;4.70;50.06
43741;BME280;29352;48.708;9.290;2023-12-28T06:52:09;98015.75;;;4.57;50.86
43741;BME280;29352;48.708;9.290;2023-12-28T06:54:36;98014.16;;;4.71;50.75
43741;BME280;29352;48.708;9.290;2023-12-28T06:57:02;98011.84;;;4.76;50.11
43741;BME280;29352;48.708;9.290;2023-12-28T06:59:28;98022.31;;;4.61;50.38
43741;BME280;29352;48.708;9.290;2023-12-28T07:01:54;98022.16;;;4.63;50.39
43741;BME280;29352;48.708;9.290;2023-12-28T07:04:20;98016.88;;;4.86;50.16
43741;BME280;29352;48.708;9.290;2023-12-28T07:06:46;98021.28;;;4.39;52.21
43741;BME280;29352;48.708;9.290;2023-12-28T07:09:11;98016.06;;;4.62;51.12
43741;BME280;29352;48.708;9.290;2023-12-28T07:11:37;98015.47;;;4.52;51.92
43741;BME280;29352;48.708;9.290;2023-12-28T07:14:02;98020.56;;;4.54;52.98
43741;BME280;29352;48.708;9.290;2023-12-28T07:16:28;98022.63;;;5.12;49.18
43741;BME280;29352;48.708;9.290;2023-12-28T07:18:53;98018.22;;;4.82;50.79
43741;BME280;29352;48.708;9.290;2023-12-28T07:21:19;98015.81;;;4.95;50.07
43741;BME280;29352;48.708;9.290;2023-12-28T07:23:45;98023.03;;;5.01;50.13
43741;BME280;29352;48.708;9.290;2023-12-28T07:26:15;98029.72;;;5.12;49.75
43741;BME280;29352;48.708;9.290;2023-12-28T07:28:42;98023.22;;;5.90;48.74
43741;BME280;29352;48.708;9.290;2023-12-28T07:31:10;98027.75;;;5.96;49.61
43741;BME280;29352;48.708;9.290;2023-12-28T07:33:37;98026.22;;;5.87;50.09
43741;BME280;29352;48.708;9.290;2023-12-28T07:36:03;98029.97;;;5.78;50.28
43741;BME280;29352;48.708;9.290;2023-12-28T07:38:32;98023.88;;;6.43;49.43
43741;BME280;29352;48.708;9.290;2023-12-28T07:40:58;98027.94;;;6.09;49.08
43741;BME280;29352;48.708;9.290;2023-12-28T07:43:24;98037.16;;;5.99;49.02
43741;BME280;29352;48.708;9.290;2023-12-28T07:45:49;98047.41;;;5.87;50.00
43741;BME280;29352;48.708;9.290;2023-12-28T07:48:14;98049.78;;;5.67;51.33
43741;BME280;29352;48.708;9.290;2023-12-28T07:50:40;98047.94;;;5.82;50.38
43741;BME280;29352;48.708;9.290;2023-12-28T07:53:06;98054.59;;;5.26;52.68
43741;BME280;29352;48.708;9.290;2023-12-28T07:55:32;98050.56;;;5.30;54.40
43741;BME280;29352;48.708;9.290;2023-12-28T07:57:57;98054.38;;;5.50;54.00
43741;BME280;29352;48.708;9.290;2023-12-28T08:00:23;98043.47;;;6.12;50.67
43741;BME280;29352;48.708;9.290;2023-12-28T08:02:49;98053.88;;;5.32;52.55
43741;BME280;29352;48.708;9.290;2023-12-28T08:05:14;98052.09;;;4.86;52.45
43741;BME280;29352;48.708;9.290;2023-12-28T08:07:40;98059.34;;;5.30;51.01
43741;BME280;29352;48.708;9.290;2023-12-28T08:10:06;98063.47;;;5.33;54.10
43741;BME280;29352;48.708;9.290;2023-12-28T08:12:32;98059.56;;;5.20;53.90
43741;BME280;29352;48.708;9.290;2023-12-28T08:14:59;98058.22;;;4.79;57.54
43741;BME280;29352;48.708;9.290;2023-12-28T08:17:24;98068.13;;;4.54;58.32
43741;BME280;29352;48.708;9.290;2023-12-28T08:19:50;98070.09;;;4.20;59.95
43741;BME280;29352;48.708;9.290;2023-12-28T08:22:15;98074.13;;;3.92;60.82
43741;BME280;29352;48.708;9.290;2023-12-28T08:24:42;98063.34;;;4.10;61.10
43741;BME280;29352;48.708;9.290;2023-12-28T08:27:07;98063.69;;;4.46;59.73
43741;BME280;29352;48.708;9.290;2023-12-28T08:29:34;98064.56;;;5.01;56.83
43741;BME280;29352;48.708;9.290;2023-12-28T08:31:59;98059.47;;;4.68;57.81
43741;BME280;29352;48.708;9.290;2023-12-28T08:34:25;98059.31;;;4.69;58.89
43741;BME280;29352;48.708;9.290;2023-12-28T08:36:51;98063.06;;;4.36;60.30
43741;BME280;29352;48.708;9.290;2023-12-28T08:39:17;98054.19;;;4.28;61.41
43741;BME280;29352;48.708;9.290;2023-12-28T08:41:43;98067.13;;;4.15;61.25
43741;BME280;29352;48.708;9.290;2023-12-28T08:44:08;98081.63;;;4.27;61.32
43741;BME280;29352;48.708;9.290;2023-12-28T08:46:34;98081.09;;;3.85;63.27
43741;BME280;29352;48.708;9.290;2023-12-28T08:48:59;98085.25;;;3.63;64.32
43741;BME280;29352;48.708;9.290;2023-12-28T08:51:25;98078.13;;;3.79;63.03
43741;BME280;29352;48.708;9.290;2023-12-28T08:53:51;98080.13;;;4.25;61.56
43741;BME280;29352;48.708;9.290;2023-12-28T08:56:20;98082.19;;;4.46;60.88
43741;BME280;29352;48.708;9.290;2023-12-28T08:58:47;98077.25;;;4.43;59.52
43741;BME280;29352;48.708;9.290;2023-12-28T09:01:20;98075.84;;;4.63;58.27
43741;BME280;29352;48.708;9.290;2023-12-28T09:03:53;98080.06;;;5.04;56.67
43741;BME280;29352;48.708;9.290;2023-12-28T09:06:20;98083.97;;;5.31;56.16
43741;BME280;29352;48.708;9.290;2023-12-28T09:08:48;98079.69;;;5.30;55.82
43741;BME280;29352;48.708;9.290;2023-12-28T09:11:16;98065.66;;;5.44;56.27
43741;BME280;29352;48.708;9.290;2023-12-28T09:13:43;98056.28;;;5.41;56.59
43741;BME280;29352;48.708;9.290;2023-12-28T09:16:12;98066.88;;;5.18;57.55
43741;BME280;29352;48.708;9.290;2023-12-28T09:18:40;98061.84;;;5.09;57.41
43741;BME280;29352;48.708;9.290;2023-12-28T09:21:07;98074.25;;;5.08;57.58
43741;BME280;29352;48.708;9.290;2023-12-28T09:23:35;98072.94;;;5.04;57.68
43741;BME280;29352;48.708;9.290;2023-12-28T09:26:02;98077.41;;;5.27;58.32
43741;BME280;29352;48.708;9.290;2023-12-28T09:28:30;98084.13;;;5.14;58.49
43741;BME280;29352;48.708;9.290;2023-12-28T09:30:56;98085.84;;;5.68;57.45
43741;BME280;29352;48.708;9.290;2023-12-28T09:33:21;98080.84;;;5.50;55.62
43741;BME280;29352;48.708;9.290;2023-12-28T09:35:47;98085.91;;;5.37;58.37
43741;BME280;29352;48.708;9.290;2023-12-28T09:38:14;98091.44;;;5.27;57.64
43741;BME280;29352;48.708;9.290;2023-12-28T09:40:43;98102.16;;;5.11;60.40
43741;BME280;29352;48.708;9.290;2023-12-28T09:43:15;98099.03;;;4.53;60.00
43741;BME280;29352;48.708;9.290;2023-12-28T09:45:48;98091.25;;;4.12;60.98
43741;BME280;29352;48.708;9.290;2023-12-28T09:48:18;98097.19;;;4.85;59.04
43741;BME280;29352;48.708;9.290;2023-12-28T09:50:53;98098.00;;;4.93;57.72
43741;BME280;29352;48.708;9.290;2023-12-28T09:53:24;98099.00;;;5.15;57.42
43741;BME280;29352;48.708;9.290;2023-12-28T09:55:52;98095.75;;;5.28;57.84
43741;BME280;29352;48.708;9.290;2023-12-28T09:58:21;98097.81;;;5.18;57.42
43741;BME280;29352;48.708;9.290;2023-12-28T10:00:49;98093.84;;;5.37;57.79
43741;BME280;29352;48.708;9.290;2023-12-28T10:03:16;98088.03;;;5.41;58.41
43741;BME280;29352;48.708;9.290;2023-12-28T10:05:43;98093.28;;;5.64;57.70
43741;BME280;29352;48.708;9.290;2023-12-28T10:08:14;98085.41;;;6.24;57.31
43741;BME280;29352;48.708;9.290;2023-12-28T10:10:41;98086.31;;;6.01;56.84
43741;BME280;29352;48.708;9.290;2023-12-28T10:13:08;98095.56;;;6.05;58.32
43741;BME280;29352;48.708;9.290;2023-12-28T10:15:38;98089.50;;;5.97;57.44
43741;BME280;29352;48.708;9.290;2023-12-28T10:18:05;98091.53;;;6.09;56.68
43741;BME280;29352;48.708;9.290;2023-12-28T10:20:32;98091.06;;;6.21;57.28
43741;BME280;29352;48.708;9.290;2023-12-28T10:22:59;98094.78;;;6.41;57.38
43741;BME280;29352;48.708;9.290;2023-12-28T10:25:25;98090.31;;;6.56;58.64
43741;BME280;29352;48.708;9.290;2023-12-28T10:27:51;98094.22;;;6.60;58.21
43741;BME280;29352;48.708;9.290;2023-12-28T10:30:20;98085.38;;;6.53;58.31
43741;BME280;29352;48.708;9.290;2023-12-28T10:32:48;98091.69;;;6.37;56.01
43741;BME280;29352;48.708;9.290;2023-12-28T10:35:14;98082.59;;;6.76;57.17
43741;BME280;29352;48.708;9.290;2023-12-28T10:37:41;98068.91;;;6.94;55.57
43741;BME280;29352;48.708;9.290;2023-12-28T10:40:12;98078.69;;;6.94;55.12
43741;BME280;29352;48.708;9.290;2023-12-28T10:42:54;98073.13;;;6.88;54.53
43741;BME280;29352;48.708;9.290;2023-12-28T10:45:28;98069.16;;;6.99;54.63
43741;BME280;29352;48.708;9.290;2023-12-28T10:48:08;98072.06;;;7.26;53.93
43741;BME280;29352;48.708;9.290;2023-12-28T10:50:42;98068.66;;;7.10;54.21
43741;BME280;29352;48.708;9.290;2023-12-28T10:53:35;98074.22;;;7.16;54.87
43741;BME280;29352;48.708;9.290;2023-12-28T10:56:20;98079.78;;;7.70;54.44
43741;BME280;29352;48.708;9.290;2023-12-28T10:58:55;98074.00;;;7.88;53.70
43741;BME280;29352;48.708;9.290;2023-12-28T11:01:27;98065.88;;;7.96;53.94
43741;BME280;29352;48.708;9.290;2023-12-28T11:06:51;98063.03;;;8.46;53.65
43741;BME280;29352;48.708;9.290;2023-12-28T11:09:20;98061.00;;;8.48;53.62
43741;BME280;29352;48.708;9.290;2023-12-28T11:11:51;98053.56;;;8.78;52.97
43741;BME280;29352;48.708;9.290;2023-12-28T11:14:17;98048.72;;;8.40;53.75
43741;BME280;29352;48.708;9.290;2023-12-28T11:16:44;98050.34;;;8.41;54.35
43741;BME280;29352;48.708;9.290;2023-12-28T11:19:12;98043.78;;;8.37;54.63
43741;BME280;29352;48.708;9.290;2023-12-28T11:21:40;98053.44;;;8.51;54.47
43741;BME280;29352;48.708;9.290;2023-12-28T11:24:08;98038.41;;;8.72;54.02
43741;BME280;29352;48.708;9.290;2023-12-28T11:26:34;98037.72;;;8.57;54.46
43741;BME280;29352;48.708;9.290;2023-12-28T11:29:01;98034.06;;;8.71;54.80
43741;BME280;29352;48.708;9.290;2023-12-28T11:31:28;98027.38;;;8.82;53.74
43741;BME280;29352;48.708;9.290;2023-12-28T11:33:54;98020.84;;;9.37;52.60
43741;BME280;29352;48.708;9.290;2023-12-28T11:36:33;98032.53;;;9.36;52.60
43741;BME280;29352;48.708;9.290;2023-12-28T11:39:05;98030.47;;;9.25;53.47
43741;BME280;29352;48.708;9.290;2023-12-28T11:41:33;98040.28;;;8.98;53.91
43741;BME280;29352;48.708;9.290;2023-12-28T11:44:02;98027.38;;;9.08;53.98
43741;BME280;29352;48.708;9.290;2023-12-28T11:46:32;98031.88;;;8.94;54.28
43741;BME280;29352;48.708;9.290;2023-12-28T11:49:06;98024.72;;;9.15;53.42
43741;BME280;29352;48.708;9.290;2023-12-28T11:51:35;98013.66;;;9.05;53.40
43741;BME280;29352;48.708;9.290;2023-12-28T11:54:03;98012.88;;;9.31;52.47
43741;BME280;29352;48.708;9.290;2023-12-28T11:56:30;98015.50;;;9.70;52.36
43741;BME280;29352;48.708;9.290;2023-12-28T11:58:57;98016.34;;;9.18;52.94
43741;BME280;29352;48.708;9.290;2023-12-28T12:01:23;98021.06;;;9.03;53.55
43741;BME280;29352;48.708;9.290;2023-12-28T12:03:49;98019.00;;;8.91;54.05
43741;BME280;29352;48.708;9.290;2023-12-28T12:06:15;98010.00;;;8.99;54.15
43741;BME280;29352;48.708;9.290;2023-12-28T12:08:48;98008.72;;;8.75;55.28
43741;BME280;29352;48.708;9.290;2023-12-28T12:11:17;98006.19;;;8.53;55.52
43741;BME280;29352;48.708;9.290;2023-12-28T12:13:43;98016.81;;;8.47;58.08
43741;BME280;29352;48.708;9.290;2023-12-28T12:16:09;98015.06;;;8.13;56.25
43741;BME280;29352;48.708;9.290;2023-12-28T12:18:35;98013.44;;;8.25;54.96
43741;BME280;29352;48.708;9.290;2023-12-28T12:21:02;98017.09;;;8.17;54.81
43741;BME280;29352;48.708;9.290;2023-12-28T12:23:28;98004.44;;;8.19;54.24
43741;BME280;29352;48.708;9.290;2023-12-28T12:25:54;98009.34;;;8.16;53.42
43741;BME280;29352;48.708;9.290;2023-12-28T12:28:20;97998.25;;;8.05;52.70
43741;BME280;29352;48.708;9.290;2023-12-28T12:30:55;97993.88;;;8.46;51.59
43741;BME280;29352;48.708;9.290;2023-12-28T12:33:25;97992.28;;;8.51;53.29
43741;BME280;29352;48.708;9.290;2023-12-28T12:35:52;97981.25;;;8.68;51.50
43741;BME280;29352;48.708;9.290;2023-12-28T12:38:17;97986.47;;;8.28;52.49
43741;BME280;29352;48.708;9.290;2023-12-28T12:40:44;97983.06;;;7.93;54.66
43741;BME280;29352;48.708;9.290;2023-12-28T12:43:11;97990.84;;;8.01;54.75
43741;BME280;29352;48.708;9.290;2023-12-28T12:45:37;97993.44;;;7.81;54.55
43741;BME280;29352;48.708;9.290;2023-12-28T12:48:04;97983.00;;;8.27;53.94
43741;BME280;29352;48.708;9.290;2023-12-28T12:50:32;97985.22;;;8.24;55.79
43741;BME280;29352;48.708;9.290;2023-12-28T12:53:00;97975.88;;;8.41;54.03
43741;BME280;29352;48.708;9.290;2023-12-28T12:55:26;97975.78;;;8.15;57.71
43741;BME280;29352;48.708;9.290;2023-12-28T12:57:52;97978.19;;;8.03;59.38
43741;BME280;29352;48.708;9.290;2023-12-28T13:00:21;97987.19;;;8.02;56.25
43741;BME280;29352;48.708;9.290;2023-12-28T13:02:47;97987.94;;;7.89;59.02
43741;BME280;29352;48.708;9.290;2023-12-28T13:05:15;97995.38;;;7.72;57.23
43741;BME280;29352;48.708;9.290;2023-12-28T13:07:40;97984.59;;;8.15;57.12
43741;BME280;29352;48.708;9.290;2023-12-28T13:10:06;97988.63;;;7.98;57.95